Time;durP1;ratioP1;P1;durP2;ratioP2;P2;SDS_P1;SDS_P2;PMS_P1;PMS_P2;Temp;Humidity;BMP_temperature;BMP_pressure;BME280_temperature;BME280_humidity;BME280_pressure;Samples;Min_cycle;Max_cycle;Signal;HPM_P1;HPM_P2
2023/06/11 00:01:08;;;;;;;12.82;8.20;;;18.70;98.40;;;;;;5045617;28;20029;-73
2023/06/11 00:03:35;;;;;;;13.27;8.25;;;18.70;98.60;;;;;;5089203;28;20044;-73
2023/06/11 00:06:01;;;;;;;12.15;9.10;;;18.70;98.70;;;;;;5077541;28;20028;-73
2023/06/11 00:08:27;;;;;;;12.38;8.40;;;18.60;98.80;;;;;;5078443;28;20054;-73
2023/06/11 00:10:52;;;;;;;12.00;8.60;;;18.60;98.90;;;;;;5088793;28;20032;-73
2023/06/11 00:13:18;;;;;;;15.50;9.27;;;18.70;99.20;;;;;;5062558;28;20531;-73
2023/06/11 00:15:44;;;;;;;13.00;8.98;;;18.70;99.20;;;;;;5075387;28;20040;-73
2023/06/11 00:18:10;;;;;;;11.30;8.00;;;18.70;99.20;;;;;;5038544;28;20155;-73
2023/06/11 00:20:40;;;;;;;10.65;7.88;;;18.70;99.30;;;;;;5082506;28;20037;-73
2023/06/11 00:23:06;;;;;;;11.68;7.95;;;18.70;99.30;;;;;;5068722;28;20040;-74
2023/06/11 00:25:32;;;;;;;11.20;7.78;;;18.70;99.40;;;;;;5057803;28;20143;-73
2023/06/11 00:27:58;;;;;;;13.07;8.30;;;18.70;99.40;;;;;;5038494;28;20768;-73
2023/06/11 00:30:24;;;;;;;8.85;7.80;;;18.70;99.60;;;;;;5057158;28;20040;-73
2023/06/11 00:32:50;;;;;;;10.07;7.85;;;18.60;99.70;;;;;;5053965;28;20044;-73
2023/06/11 00:35:16;;;;;;;10.18;7.72;;;18.70;99.80;;;;;;5035055;28;20029;-73
2023/06/11 00:37:42;;;;;;;10.70;7.50;;;18.60;99.80;;;;;;5053024;28;20089;-73
2023/06/11 00:40:08;;;;;;;12.77;7.63;;;18.60;99.90;;;;;;5050425;28;20405;-73
2023/06/11 00:42:34;;;;;;;13.20;8.30;;;18.70;99.80;;;;;;5035479;28;20044;-73
2023/06/11 00:45:04;;;;;;;8.90;7.95;;;18.70;99.80;;;;;;5051776;28;20037;-73
2023/06/11 00:47:30;;;;;;;9.60;8.60;;;18.70;99.80;;;;;;5075014;28;20660;-73
2023/06/11 00:49:56;;;;;;;10.10;7.93;;;18.70;99.60;;;;;;5061376;28;20417;-73
2023/06/11 00:52:22;;;;;;;12.73;8.50;;;18.70;99.60;;;;;;5094061;27;20046;-73
2023/06/11 00:54:48;;;;;;;10.80;8.20;;;18.70;99.70;;;;;;5050459;28;20098;-73
2023/06/11 00:57:24;;;;;;;12.48;8.07;;;18.60;99.70;;;;;;5056997;28;20135;-73
2023/06/11 00:59:53;;;;;;;12.23;8.73;;;18.60;99.90;;;;;;5058193;28;20043;-73
2023/06/11 01:02:38;;;;;;;9.77;8.63;;;18.60;99.90;;;;;;5056877;28;20041;-73
2023/06/11 01:05:06;;;;;;;11.77;8.27;;;18.60;99.90;;;;;;5093906;27;20044;-73
2023/06/11 01:07:37;;;;;;;11.73;8.52;;;18.60;99.90;;;;;;5027516;28;20040;-73
2023/06/11 01:10:03;;;;;;;11.70;8.48;;;18.50;99.90;;;;;;5095436;27;20414;-73
2023/06/11 01:12:30;;;;;;;11.50;8.68;;;18.50;99.90;;;;;;5065740;28;20386;-73
2023/06/11 01:14:55;;;;;;;12.75;9.07;;;18.50;99.90;;;;;;5014255;28;20040;-73
2023/06/11 01:17:32;;;;;;;8.80;7.90;;;18.50;99.90;;;;;;5048548;28;20029;-73
2023/06/11 01:20:09;;;;;;;10.65;9.52;;;18.40;99.90;;;;;;5067998;28;20079;-73
2023/06/11 01:22:54;;;;;;;9.20;8.23;;;18.40;99.90;;;;;;5086397;27;20040;-73
2023/06/11 01:25:25;;;;;;;10.25;9.15;;;18.40;99.90;;;;;;5089208;27;20049;-73
2023/06/11 01:28:07;;;;;;;9.73;8.43;;;18.30;99.90;;;;;;5056027;28;20037;-73
2023/06/11 01:30:36;;;;;;;13.20;8.25;;;18.30;99.90;;;;;;5049375;28;20546;-73
2023/06/11 01:33:02;;;;;;;10.52;8.38;;;18.30;99.90;;;;;;5072162;28;20040;-73
2023/06/11 01:35:29;;;;;;;10.90;8.43;;;18.30;99.90;;;;;;5067084;28;20041;-73
2023/06/11 01:37:58;;;;;;;9.73;8.73;;;18.30;99.90;;;;;;5037487;28;20041;-73
2023/06/11 01:40:28;;;;;;;10.57;9.30;;;18.20;99.90;;;;;;5064577;28;20039;-73
2023/06/11 01:42:57;;;;;;;10.13;8.88;;;18.20;99.90;;;;;;5033078;28;20037;-73
2023/06/11 01:45:24;;;;;;;15.48;10.10;;;18.20;99.90;;;;;;5091272;27;20059;-73
2023/06/11 01:47:50;;;;;;;11.35;9.02;;;18.10;99.90;;;;;;5082916;28;20044;-73
2023/06/11 01:50:17;;;;;;;9.45;8.55;;;18.10;99.90;;;;;;5087263;27;20037;-73
2023/06/11 01:52:43;;;;;;;10.05;8.88;;;18.00;99.90;;;;;;5065644;28;20449;-73
2023/06/11 01:55:10;;;;;;;11.10;9.40;;;18.00;99.90;;;;;;5092212;27;20124;-73
2023/06/11 01:57:36;;;;;;;11.32;9.70;;;18.00;99.90;;;;;;5057962;28;20625;-73
2023/06/11 02:00:05;;;;;;;10.25;9.25;;;17.90;99.90;;;;;;5051042;28;20098;-73
2023/06/11 02:02:31;;;;;;;11.90;9.52;;;17.90;99.90;;;;;;5047597;28;20641;-73
2023/06/11 02:04:57;;;;;;;11.77;9.63;;;17.90;99.90;;;;;;5036725;28;20037;-73
2023/06/11 02:07:23;;;;;;;11.15;10.00;;;17.90;99.90;;;;;;5056514;28;20032;-73
2023/06/11 02:09:49;;;;;;;12.10;10.75;;;17.80;99.90;;;;;;5049911;28;20558;-73
2023/06/11 02:12:15;;;;;;;12.63;10.10;;;17.80;99.90;;;;;;5046892;28;20056;-73
2023/06/11 02:14:41;;;;;;;11.80;10.63;;;17.70;99.90;;;;;;5050410;28;20045;-73
2023/06/11 02:17:06;;;;;;;13.13;10.93;;;17.70;99.90;;;;;;5081389;28;20033;-73
2023/06/11 02:19:32;;;;;;;13.50;11.48;;;17.60;99.90;;;;;;5048466;28;20040;-73
2023/06/11 02:21:58;;;;;;;14.68;11.57;;;17.60;99.90;;;;;;5035062;28;20064;-73
2023/06/11 02:24:23;;;;;;;12.10;10.38;;;17.50;99.90;;;;;;5057487;28;20509;-73
2023/06/11 02:26:49;;;;;;;13.30;10.65;;;17.40;99.90;;;;;;5050483;28;20052;-73
2023/06/11 02:29:15;;;;;;;11.88;10.57;;;17.40;99.90;;;;;;5037360;28;20032;-73
2023/06/11 02:31:40;;;;;;;12.77;9.88;;;17.30;99.90;;;;;;5067385;28;20045;-73
2023/06/11 02:34:06;;;;;;;11.80;10.60;;;17.20;99.90;;;;;;5092861;28;20037;-73
2023/06/11 02:36:32;;;;;;;12.43;10.80;;;17.20;99.90;;;;;;5058164;28;20422;-73
2023/06/11 02:38:57;;;;;;;13.40;10.68;;;17.10;99.90;;;;;;5061727;28;20055;-73
2023/06/11 02:41:23;;;;;;;13.77;10.98;;;17.10;99.90;;;;;;5095581;27;20106;-73
2023/06/11 02:43:48;;;;;;;10.90;9.88;;;17.00;99.90;;;;;;5042121;28;20187;-73
2023/06/11 02:46:14;;;;;;;14.30;10.13;;;17.00;99.90;;;;;;5047077;28;20036;-73
2023/06/11 02:48:40;;;;;;;12.80;11.45;;;17.00;99.90;;;;;;5078382;28;20063;-73
2023/06/11 02:51:05;;;;;;;11.43;10.32;;;17.00;99.90;;;;;;5032708;28;20462;-73
2023/06/11 02:53:31;;;;;;;11.82;10.52;;;16.90;99.90;;;;;;5045954;28;20037;-73
2023/06/11 02:55:57;;;;;;;13.88;10.65;;;16.90;99.90;;;;;;5049272;28;20120;-73
2023/06/11 02:58:22;;;;;;;12.80;11.18;;;16.90;99.90;;;;;;5067156;28;20057;-73
2023/06/11 03:00:48;;;;;;;13.82;11.95;;;16.80;99.90;;;;;;5055821;28;20045;-73
2023/06/11 03:03:14;;;;;;;16.95;12.00;;;16.80;99.90;;;;;;5064679;28;20131;-73
2023/06/11 03:05:40;;;;;;;14.10;11.35;;;16.80;99.90;;;;;;5048856;28;20506;-73
2023/06/11 03:08:06;;;;;;;12.77;11.57;;;16.80;99.90;;;;;;5061173;28;20059;-73
2023/06/11 03:10:31;;;;;;;15.73;11.65;;;16.70;99.90;;;;;;5058305;28;20045;-73
2023/06/11 03:12:57;;;;;;;12.85;11.00;;;16.70;99.90;;;;;;5036951;28;20040;-73
2023/06/11 03:15:23;;;;;;;15.00;11.90;;;16.70;99.90;;;;;;5061715;28;20107;-73
2023/06/11 03:17:48;;;;;;;13.45;12.05;;;16.60;99.90;;;;;;5036208;28;20037;-73
2023/06/11 03:20:14;;;;;;;13.55;11.95;;;16.50;99.90;;;;;;5061023;28;20040;-73
2023/06/11 03:22:40;;;;;;;16.75;12.73;;;16.50;99.90;;;;;;5062811;28;20063;-73
2023/06/11 03:25:06;;;;;;;14.00;12.52;;;16.50;99.90;;;;;;5039964;28;20119;-73
2023/06/11 03:27:32;;;;;;;14.68;11.82;;;16.50;99.90;;;;;;5066359;28;20063;-73
2023/06/11 03:29:57;;;;;;;14.40;11.88;;;16.40;99.90;;;;;;5055886;28;20037;-73
2023/06/11 03:32:23;;;;;;;13.38;11.80;;;16.50;99.90;;;;;;5067763;28;20040;-73
2023/06/11 03:34:52;;;;;;;12.18;10.95;;;16.40;99.90;;;;;;5056718;28;20157;-73
2023/06/11 03:37:18;;;;;;;13.82;11.40;;;16.40;99.90;;;;;;5065961;28;20122;-73
2023/06/11 03:39:44;;;;;;;14.10;11.90;;;16.40;99.90;;;;;;5038838;28;20156;-73
2023/06/11 03:42:10;;;;;;;12.68;11.35;;;16.40;99.90;;;;;;5078845;28;20140;-73
2023/06/11 03:44:36;;;;;;;12.70;11.40;;;16.40;99.90;;;;;;5082040;28;20036;-73
2023/06/11 03:47:02;;;;;;;12.57;11.27;;;16.40;99.90;;;;;;5052518;28;20044;-73
2023/06/11 03:49:27;;;;;;;13.13;11.65;;;16.40;99.90;;;;;;5079139;28;20044;-73
2023/06/11 03:51:55;;;;;;;14.73;11.52;;;16.40;99.90;;;;;;5060210;28;20037;-73
2023/06/11 03:54:20;;;;;;;13.38;11.52;;;16.50;99.90;;;;;;5048891;28;20040;-73
2023/06/11 03:56:46;;;;;;;13.63;11.82;;;16.50;99.90;;;;;;5053674;28;20106;-73
2023/06/11 03:59:12;;;;;;;12.82;11.40;;;16.50;99.90;;;;;;5066376;28;20041;-73
2023/06/11 04:01:37;;;;;;;17.77;11.10;;;16.60;99.90;;;;;;5047394;28;20052;-73
2023/06/11 04:04:03;;;;;;;12.60;10.32;;;16.60;99.90;;;;;;5059829;28;20039;-73
2023/06/11 04:06:35;;;;;;;12.98;11.52;;;16.60;99.90;;;;;;5031286;28;20044;-73
2023/06/11 04:09:01;;;;;;;14.32;11.43;;;16.70;99.90;;;;;;5047282;28;20043;-73
2023/06/11 04:11:26;;;;;;;14.32;10.70;;;16.70;99.90;;;;;;5059689;28;20040;-73
2023/06/11 04:13:52;;;;;;;13.70;12.23;;;16.70;99.90;;;;;;5057910;28;20481;-73
2023/06/11 04:16:18;;;;;;;15.02;11.98;;;16.70;99.90;;;;;;5057529;28;20036;-73
2023/06/11 04:18:44;;;;;;;12.90;11.63;;;16.80;99.90;;;;;;5052999;28;20033;-73
2023/06/11 04:21:09;;;;;;;13.73;12.32;;;16.80;99.90;;;;;;5064700;28;20641;-75
2023/06/11 04:23:36;;;;;;;14.02;12.10;;;16.80;99.90;;;;;;5077363;28;20029;-74
2023/06/11 04:26:02;;;;;;;14.80;12.00;;;16.90;99.90;;;;;;5058151;28;20041;-73
2023/06/11 04:28:28;;;;;;;13.35;12.00;;;16.90;99.90;;;;;;5069154;28;20047;-74
2023/06/11 04:30:57;;;;;;;13.82;12.32;;;17.00;99.90;;;;;;5075061;28;20115;-76
2023/06/11 04:33:32;;;;;;;14.38;12.05;;;17.00;99.90;;;;;;5050618;28;20040;-74
2023/06/11 04:36:01;;;;;;;15.80;12.27;;;17.10;99.90;;;;;;5060220;28;20082;-74
2023/06/11 04:38:31;;;;;;;14.55;12.35;;;17.10;99.90;;;;;;5100266;27;20392;-75
2023/06/11 04:40:57;;;;;;;14.70;11.90;;;17.20;99.90;;;;;;5067904;28;20068;-75
2023/06/11 04:43:23;;;;;;;14.93;12.55;;;17.20;99.90;;;;;;5065652;28;20032;-74
2023/06/11 04:45:56;;;;;;;14.30;12.27;;;17.20;99.90;;;;;;5062495;28;20040;-74
2023/06/11 04:48:22;;;;;;;15.85;12.07;;;17.30;99.90;;;;;;5066814;28;20040;-74
2023/06/11 04:50:50;;;;;;;14.38;11.65;;;17.30;99.90;;;;;;5069478;28;20108;-74
2023/06/11 04:53:21;;;;;;;16.08;12.60;;;17.40;99.90;;;;;;5047807;28;20044;-74
2023/06/11 04:55:50;;;;;;;12.95;11.65;;;17.40;99.90;;;;;;5050791;28;20041;-74
2023/06/11 04:58:15;;;;;;;17.27;12.30;;;17.50;99.90;;;;;;5064869;28;20131;-74
2023/06/11 05:00:42;;;;;;;14.15;12.65;;;17.50;99.90;;;;;;5101334;27;20075;-74
2023/06/11 05:03:08;;;;;;;15.18;11.77;;;17.60;99.90;;;;;;5062215;28;20040;-75
2023/06/11 05:05:34;;;;;;;14.35;12.20;;;17.60;99.90;;;;;;5048621;28;20040;-74
2023/06/11 05:08:00;;;;;;;14.30;12.82;;;17.70;99.90;;;;;;5058383;28;20067;-74
2023/06/11 05:10:25;;;;;;;14.50;12.27;;;17.70;99.90;;;;;;5068962;28;20041;-74
2023/06/11 05:12:51;;;;;;;13.48;12.13;;;17.80;99.90;;;;;;5088654;28;20044;-74
2023/06/11 05:15:17;;;;;;;16.50;12.05;;;17.90;99.90;;;;;;5111498;28;20024;-74
2023/06/11 05:17:43;;;;;;;13.70;12.35;;;17.90;99.90;;;;;;5067768;28;20032;-74
2023/06/11 05:20:09;;;;;;;14.88;12.52;;;18.00;99.90;;;;;;5065438;28;20032;-74
2023/06/11 05:22:35;;;;;;;13.63;12.23;;;18.10;99.90;;;;;;5055243;28;20067;-74
2023/06/11 05:25:00;;;;;;;12.85;11.55;;;18.20;99.90;;;;;;5096682;27;20110;-74
2023/06/11 05:27:29;;;;;;;18.45;11.45;;;18.30;99.90;;;;;;5060267;28;20592;-74
2023/06/11 05:29:57;;;;;;;13.13;11.38;;;18.30;99.90;;;;;;5055493;28;20159;-74
2023/06/11 05:32:23;;;;;;;13.88;11.00;;;18.40;99.90;;;;;;5044421;28;20044;-74
2023/06/11 05:34:49;;;;;;;16.98;12.02;;;18.50;99.90;;;;;;5061374;28;20052;-74
2023/06/11 05:37:15;;;;;;;19.25;12.20;;;18.60;99.90;;;;;;5064919;28;20036;-74
2023/06/11 05:39:41;;;;;;;14.43;11.18;;;18.60;99.90;;;;;;5042484;28;20037;-74
2023/06/11 05:42:08;;;;;;;14.27;11.10;;;18.80;99.90;;;;;;5047710;28;20083;-74
2023/06/11 05:44:33;;;;;;;12.35;10.45;;;18.80;99.90;;;;;;5041802;28;20037;-75
2023/06/11 05:46:59;;;;;;;12.35;11.07;;;18.90;99.90;;;;;;5048923;28;20651;-74
2023/06/11 05:49:25;;;;;;;12.82;11.00;;;19.00;99.90;;;;;;5044120;28;20553;-74
2023/06/11 05:51:50;;;;;;;13.82;11.13;;;19.10;99.90;;;;;;5049065;28;20092;-74
2023/06/11 05:54:16;;;;;;;12.32;10.57;;;19.20;99.90;;;;;;5059429;28;20059;-74
2023/06/11 05:56:43;;;;;;;12.30;11.00;;;19.20;99.90;;;;;;5060500;28;20135;-74
2023/06/11 05:59:09;;;;;;;14.07;11.50;;;19.30;99.90;;;;;;5052347;28;20541;-74
2023/06/11 06:01:36;;;;;;;17.10;11.38;;;19.40;99.90;;;;;;5041242;28;20037;-74
2023/06/11 06:04:03;;;;;;;11.85;10.73;;;19.50;99.90;;;;;;5061690;28;20064;-74
2023/06/11 06:06:30;;;;;;;12.73;11.15;;;19.60;99.90;;;;;;5040591;28;20048;-74
2023/06/11 06:08:55;;;;;;;12.52;10.70;;;19.60;99.90;;;;;;5049408;28;20055;-74
2023/06/11 06:11:21;;;;;;;15.32;10.55;;;19.70;99.90;;;;;;5046526;28;20406;-74
2023/06/11 06:13:47;;;;;;;14.50;11.57;;;19.80;99.90;;;;;;5047768;28;20037;-74
2023/06/11 06:16:13;;;;;;;12.82;11.35;;;19.80;99.90;;;;;;5061784;28;20474;-74
2023/06/11 06:18:39;;;;;;;14.75;11.82;;;20.00;99.90;;;;;;5050843;28;20051;-74
2023/06/11 06:21:05;;;;;;;12.30;11.02;;;20.10;99.90;;;;;;5033818;28;20032;-74
2023/06/11 06:23:31;;;;;;;14.23;10.98;;;20.20;99.90;;;;;;5050451;28;20040;-74
2023/06/11 06:25:58;;;;;;;11.25;10.15;;;20.30;99.90;;;;;;5046007;28;20043;-74
2023/06/11 06:28:24;;;;;;;13.18;10.30;;;20.30;99.90;;;;;;5061383;28;20116;-74
2023/06/11 06:30:49;;;;;;;11.45;10.27;;;20.40;99.90;;;;;;5041420;28;20132;-74
2023/06/11 06:33:16;;;;;;;13.45;10.23;;;20.50;99.90;;;;;;5096661;27;20048;-74
2023/06/11 06:35:42;;;;;;;11.98;9.80;;;20.60;99.90;;;;;;5047967;28;20052;-74
2023/06/11 06:38:07;;;;;;;15.63;10.05;;;20.70;99.90;;;;;;5066147;28;20028;-74
2023/06/11 06:40:33;;;;;;;11.18;9.57;;;20.80;99.90;;;;;;5064038;28;20040;-74
2023/06/11 06:42:59;;;;;;;12.85;10.10;;;20.90;99.90;;;;;;5063307;28;20063;-74
2023/06/11 06:45:25;;;;;;;11.40;9.35;;;21.00;99.90;;;;;;5048613;28;20048;-74
2023/06/11 06:47:51;;;;;;;12.00;9.98;;;21.10;99.90;;;;;;5079011;28;20044;-74
2023/06/11 06:50:16;;;;;;;10.73;9.38;;;21.30;99.90;;;;;;5050734;28;20463;-75
2023/06/11 06:52:42;;;;;;;11.40;10.07;;;21.30;99.90;;;;;;5031469;28;20052;-74
2023/06/11 06:55:08;;;;;;;12.73;9.20;;;21.50;99.90;;;;;;5056144;28;20051;-74
2023/06/11 06:57:35;;;;;;;10.85;9.75;;;21.60;99.90;;;;;;5066376;28;20052;-72
2023/06/11 07:00:01;;;;;;;11.52;9.32;;;21.80;99.90;;;;;;5063566;28;20116;-72
2023/06/11 07:02:26;;;;;;;10.82;9.32;;;21.90;99.90;;;;;;5096803;27;20037;-72
2023/06/11 07:04:52;;;;;;;16.80;8.80;;;22.00;99.90;;;;;;5052728;28;20052;-72
2023/06/11 07:07:18;;;;;;;11.57;9.38;;;22.20;99.90;;;;;;5059444;28;20037;-64
2023/06/11 07:09:44;;;;;;;14.32;9.02;;;22.30;99.90;;;;;;5062119;28;20382;-66
2023/06/11 07:12:10;;;;;;;11.35;9.20;;;22.50;99.90;;;;;;5061717;28;20047;-65
2023/06/11 07:14:35;;;;;;;12.50;9.18;;;22.60;99.90;;;;;;5055367;28;20570;-65
2023/06/11 07:17:01;;;;;;;10.15;8.98;;;22.80;99.90;;;;;;5095958;28;20062;-65
2023/06/11 07:19:27;;;;;;;10.40;8.70;;;22.90;99.90;;;;;;5067391;28;20579;-65
2023/06/11 07:21:52;;;;;;;9.75;8.85;;;23.00;99.90;;;;;;5069974;28;20037;-66
2023/06/11 07:24:18;;;;;;;9.98;8.98;;;23.10;99.90;;;;;;5059672;28;20425;-66
2023/06/11 07:26:44;;;;;;;11.38;8.88;;;23.20;99.90;;;;;;5061657;28;20478;-65
2023/06/11 07:29:10;;;;;;;10.65;8.63;;;23.40;99.90;;;;;;5098999;28;20044;-65
2023/06/11 07:31:36;;;;;;;10.60;8.90;;;23.50;99.90;;;;;;5061046;28;20035;-65
2023/06/11 07:34:01;;;;;;;10.25;9.15;;;23.70;99.60;;;;;;5057594;28;20481;-66
2023/06/11 07:36:27;;;;;;;12.93;9.23;;;23.80;99.30;;;;;;5070049;28;20039;-73
2023/06/11 07:38:52;;;;;;;10.20;8.90;;;23.90;98.50;;;;;;5065634;28;20040;-73
2023/06/11 07:41:18;;;;;;;10.00;8.80;;;24.00;98.40;;;;;;5096662;28;20048;-74
2023/06/11 07:43:44;;;;;;;13.23;8.88;;;24.10;98.50;;;;;;5081383;28;20033;-74
2023/06/11 07:46:10;;;;;;;9.52;8.18;;;24.30;98.30;;;;;;5069536;28;20132;-73
2023/06/11 07:48:41;;;;;;;10.77;8.55;;;24.30;98.00;;;;;;5086324;28;20379;-73
2023/06/11 07:51:06;;;;;;;13.35;9.18;;;24.40;97.70;;;;;;5091363;28;20051;-73
2023/06/11 07:53:33;;;;;;;12.15;8.57;;;24.50;97.70;;;;;;5047782;28;20029;-74
2023/06/11 07:55:59;;;;;;;14.13;9.55;;;24.60;97.50;;;;;;5063842;28;20079;-72
2023/06/11 07:58:24;;;;;;;12.85;8.95;;;24.80;97.50;;;;;;5046173;28;20044;-73
2023/06/11 08:00:51;;;;;;;9.15;8.27;;;24.80;97.20;;;;;;5052249;28;20062;-73
2023/06/11 08:03:17;;;;;;;9.63;8.25;;;24.90;97.10;;;;;;5050836;28;20035;-73
2023/06/11 08:05:42;;;;;;;9.88;8.65;;;25.00;96.90;;;;;;5098030;28;20110;-73
2023/06/11 08:08:08;;;;;;;9.85;8.90;;;25.10;96.60;;;;;;5063641;28;20079;-73
2023/06/11 08:10:34;;;;;;;15.65;8.75;;;25.20;96.30;;;;;;5083930;28;20037;-73
2023/06/11 08:12:59;;;;;;;9.27;8.38;;;25.30;96.20;;;;;;5033364;28;20093;-73
2023/06/11 08:15:25;;;;;;;13.98;8.07;;;25.40;96.10;;;;;;5061582;28;20513;-73
2023/06/11 08:17:51;;;;;;;10.30;8.70;;;25.50;95.80;;;;;;5066237;28;20060;-73
2023/06/11 08:20:17;;;;;;;10.93;8.43;;;25.60;96.00;;;;;;5065674;28;20029;-73
2023/06/11 08:22:43;;;;;;;11.93;8.40;;;25.80;96.10;;;;;;5067961;28;20044;-73
2023/06/11 08:25:10;;;;;;;9.57;8.57;;;26.00;95.50;;;;;;5068553;28;20537;-74
2023/06/11 08:27:36;;;;;;;10.20;8.25;;;26.00;95.10;;;;;;5059265;28;20036;-73
2023/06/11 08:30:02;;;;;;;13.15;8.00;;;26.10;94.90;;;;;;5047572;28;20052;-73
2023/06/11 08:32:28;;;;;;;12.50;8.57;;;26.20;94.80;;;;;;5048195;28;20464;-74
2023/06/11 08:34:54;;;;;;;8.82;7.90;;;26.40;94.70;;;;;;5084135;28;20128;-74
2023/06/11 08:37:20;;;;;;;8.60;7.70;;;26.50;94.50;;;;;;5056697;28;20086;-73
2023/06/11 08:39:46;;;;;;;11.98;7.88;;;26.60;94.10;;;;;;5068496;28;20448;-74
2023/06/11 08:42:12;;;;;;;8.77;7.88;;;26.80;94.10;;;;;;5072537;28;20065;-73
2023/06/11 08:44:38;;;;;;;10.68;8.02;;;26.90;93.80;;;;;;5088013;28;20490;-73
2023/06/11 08:47:04;;;;;;;8.38;7.57;;;27.00;93.20;;;;;;5041927;28;20043;-73
2023/06/11 08:49:31;;;;;;;9.25;8.15;;;27.10;93.20;;;;;;5068236;28;20071;-74
2023/06/11 08:52:02;;;;;;;14.95;8.48;;;27.20;92.70;;;;;;5101927;28;20036;-73
2023/06/11 08:54:28;;;;;;;13.02;7.40;;;27.20;92.70;;;;;;5067295;28;20048;-73
2023/06/11 08:56:54;;;;;;;12.15;7.60;;;27.40;92.90;;;;;;5084149;28;20405;-73
2023/06/11 08:59:20;;;;;;;7.90;7.07;;;27.50;92.60;;;;;;5079656;28;20041;-73
2023/06/11 09:01:50;;;;;;;14.32;7.53;;;27.60;92.20;;;;;;5102369;28;20047;-73
2023/06/11 09:04:20;;;;;;;10.38;7.50;;;27.70;92.10;;;;;;5069910;28;20044;-73
2023/06/11 09:07:03;;;;;;;14.13;7.90;;;27.80;92.00;;;;;;5070853;28;20040;-73
2023/06/11 09:09:29;;;;;;;7.95;7.07;;;27.80;90.70;;;;;;5061577;28;20420;-73
2023/06/11 09:11:54;;;;;;;9.13;7.80;;;27.80;90.90;;;;;;5058906;28;20032;-73
2023/06/11 09:14:20;;;;;;;8.98;8.05;;;27.80;90.70;;;;;;5070733;28;20049;-74
2023/06/11 09:16:47;;;;;;;11.15;8.10;;;27.90;90.90;;;;;;5087313;28;20040;-73
2023/06/11 09:19:18;;;;;;;8.45;7.63;;;28.00;90.90;;;;;;5060629;28;20040;-74
2023/06/11 09:21:52;;;;;;;12.13;7.55;;;28.10;90.60;;;;;;5105206;28;20041;-73
2023/06/11 09:24:19;;;;;;;11.77;8.05;;;28.20;90.10;;;;;;5099533;28;20181;-73
2023/06/11 09:26:53;;;;;;;7.97;7.22;;;28.20;90.20;;;;;;5068442;28;20048;-74
2023/06/11 09:29:20;;;;;;;8.65;7.80;;;28.50;90.30;;;;;;5065859;28;20057;-73
2023/06/11 09:31:46;;;;;;;11.63;7.50;;;28.60;90.30;;;;;;5057792;28;20137;-73
2023/06/11 09:34:16;;;;;;;9.00;7.57;;;28.70;89.80;;;;;;5087853;28;20413;-73
2023/06/11 09:36:46;;;;;;;9.85;7.35;;;28.80;88.90;;;;;;5071290;28;20039;-74
2023/06/11 09:39:13;;;;;;;9.00;7.30;;;28.90;88.60;;;;;;5098387;27;20032;-74
2023/06/11 09:41:49;;;;;;;8.85;7.03;;;29.00;88.50;;;;;;5050107;28;20049;-74
2023/06/11 09:44:19;;;;;;;8.60;7.40;;;29.10;87.10;;;;;;5069672;28;20032;-74
2023/06/11 09:46:47;;;;;;;8.80;7.40;;;29.10;86.60;;;;;;5096860;27;20397;-74
2023/06/11 09:49:14;;;;;;;7.75;6.65;;;29.20;87.40;;;;;;5071375;28;20040;-74
2023/06/11 09:51:40;;;;;;;7.50;6.57;;;29.30;87.10;;;;;;5069956;28;20048;-74
2023/06/11 09:54:09;;;;;;;8.32;6.60;;;29.40;84.80;;;;;;5067366;28;20040;-74
2023/06/11 09:56:37;;;;;;;8.98;6.88;;;29.40;84.80;;;;;;5069274;28;20029;-74
2023/06/11 09:59:03;;;;;;;7.45;6.47;;;29.40;85.10;;;;;;5053154;28;20032;-74
2023/06/11 10:01:30;;;;;;;9.07;6.70;;;29.50;84.20;;;;;;5069715;28;20043;-74
2023/06/11 10:03:57;;;;;;;7.40;6.30;;;29.50;84.20;;;;;;5070789;28;20036;-74
2023/06/11 10:06:30;;;;;;;11.63;6.20;;;29.60;83.80;;;;;;5069324;28;20094;-73
2023/06/11 10:09:00;;;;;;;11.02;6.57;;;29.80;82.60;;;;;;5071036;28;20041;-74
2023/06/11 10:11:29;;;;;;;6.95;6.25;;;29.80;79.90;;;;;;5064616;28;20047;-74
2023/06/11 10:13:59;;;;;;;8.60;5.90;;;29.90;80.90;;;;;;5068636;28;20067;-74
2023/06/11 10:16:26;;;;;;;7.85;5.65;;;30.00;80.30;;;;;;5053430;28;20052;-74
2023/06/11 10:19:01;;;;;;;7.53;6.70;;;30.00;79.10;;;;;;5069720;28;20409;-74
2023/06/11 10:21:36;;;;;;;7.93;6.20;;;30.20;77.70;;;;;;5090380;28;20125;-74
2023/06/11 10:24:02;;;;;;;7.60;6.35;;;30.30;77.30;;;;;;5040060;28;20044;-74
2023/06/11 10:26:35;;;;;;;16.00;6.25;;;30.50;79.20;;;;;;5069217;28;20044;-74
2023/06/11 10:29:01;;;;;;;10.88;6.38;;;30.60;76.80;;;;;;5083591;28;20025;-74
2023/06/11 10:31:30;;;;;;;11.07;6.57;;;30.70;77.40;;;;;;5066114;28;20033;-74
2023/06/11 10:34:05;;;;;;;7.63;6.32;;;30.70;76.90;;;;;;5051608;28;20033;-75
2023/06/11 10:36:40;;;;;;;9.25;5.30;;;30.80;76.70;;;;;;5044626;28;20044;-75
2023/06/11 10:39:23;;;;;;;7.80;5.60;;;30.90;73.60;;;;;;5069662;28;20029;-74
2023/06/11 10:42:00;;;;;;;7.95;5.65;;;30.90;73.20;;;;;;5039029;28;20039;-75
2023/06/11 10:44:26;;;;;;;5.93;5.43;;;31.00;72.20;;;;;;5076648;28;20032;-74
2023/06/11 10:46:53;;;;;;;8.25;5.78;;;31.10;72.60;;;;;;5069101;28;20110;-75
2023/06/11 10:49:22;;;;;;;16.35;6.40;;;31.10;72.90;;;;;;5055718;28;20044;-75
2023/06/11 10:51:49;;;;;;;16.05;6.25;;;31.30;72.40;;;;;;5049320;28;20047;-75
2023/06/11 10:54:35;;;;;;;5.55;5.05;;;31.20;67.90;;;;;;5067017;28;20037;-75
2023/06/11 10:57:02;;;;;;;6.50;5.80;;;31.30;69.30;;;;;;5049615;28;20143;-74
2023/06/11 10:59:29;;;;;;;6.60;5.30;;;31.30;70.20;;;;;;5082636;28;20448;-76
2023/06/11 11:01:56;;;;;;;8.00;5.38;;;31.30;69.70;;;;;;5063668;28;20064;-76
2023/06/11 11:04:22;;;;;;;9.20;5.63;;;31.40;69.20;;;;;;5040158;28;20040;-76
2023/06/11 11:06:49;;;;;;;11.02;5.50;;;31.40;69.00;;;;;;5067676;28;20037;-74
2023/06/11 11:09:22;;;;;;;6.65;5.20;;;31.50;69.60;;;;;;5061739;28;20048;-74
2023/06/11 11:11:49;;;;;;;7.95;5.55;;;31.60;69.30;;;;;;5076231;28;20045;-76
2023/06/11 11:14:16;;;;;;;7.15;5.30;;;31.70;69.10;;;;;;5049561;28;20068;-76
2023/06/11 11:16:42;;;;;;;9.65;5.47;;;31.80;69.00;;;;;;5078248;28;20048;-75
2023/06/11 11:19:08;;;;;;;10.43;5.65;;;31.90;68.80;;;;;;5060551;28;20475;-77
2023/06/11 11:21:34;;;;;;;9.25;5.43;;;32.00;67.80;;;;;;5053493;28;20529;-76
2023/06/11 11:24:00;;;;;;;10.20;6.20;;;32.10;68.00;;;;;;5055235;28;20033;-75
2023/06/11 11:26:26;;;;;;;7.30;5.68;;;32.20;67.40;;;;;;5057916;28;20044;-76
2023/06/11 11:28:52;;;;;;;8.15;5.90;;;32.20;66.60;;;;;;5014252;28;20033;-76
2023/06/11 11:31:21;;;;;;;9.18;5.78;;;32.30;66.60;;;;;;5051466;28;20512;-75
2023/06/11 11:33:47;;;;;;;5.93;5.32;;;32.30;65.90;;;;;;5057309;28;20041;-76
2023/06/11 11:36:13;;;;;;;8.05;5.72;;;32.40;66.00;;;;;;5065392;28;20048;-76
2023/06/11 11:38:39;;;;;;;6.53;5.80;;;32.40;66.10;;;;;;5037289;28;20044;-77
2023/06/11 11:41:11;;;;;;;9.55;5.50;;;32.40;65.90;;;;;;5095886;27;20040;-72
2023/06/11 11:43:41;;;;;;;12.70;5.70;;;32.40;65.00;;;;;;5078147;28;20477;-74
2023/06/11 11:46:21;;;;;;;8.77;5.57;;;32.20;64.40;;;;;;5072901;28;20075;-74
2023/06/11 11:48:47;;;;;;;8.25;5.55;;;32.20;64.60;;;;;;5050652;28;20048;-75
2023/06/11 11:51:15;;;;;;;5.95;5.45;;;32.20;64.60;;;;;;5052093;28;20040;-74
2023/06/11 11:53:42;;;;;;;7.68;5.32;;;32.00;64.00;;;;;;5048323;28;20050;-74
2023/06/11 11:56:08;;;;;;;7.50;5.68;;;31.80;63.90;;;;;;5062768;28;20065;-74
2023/06/11 11:58:41;;;;;;;6.38;5.75;;;31.80;64.20;;;;;;5050458;28;20053;-78
2023/06/11 12:01:15;;;;;;;8.35;5.30;;;32.00;64.10;;;;;;5069161;28;20045;-74
2023/06/11 12:03:40;;;;;;;7.93;5.63;;;32.00;64.00;;;;;;5047308;28;20119;-74
2023/06/11 12:06:08;;;;;;;8.38;5.80;;;32.00;63.40;;;;;;5069000;28;20549;-74
2023/06/11 12:08:36;;;;;;;7.30;5.53;;;32.00;62.10;;;;;;5093613;28;20108;-74
2023/06/11 12:11:06;;;;;;;7.45;5.63;;;31.90;62.20;;;;;;5067350;28;20040;-74
2023/06/11 12:13:32;;;;;;;9.38;5.55;;;31.80;63.00;;;;;;5066396;28;20461;-74
2023/06/11 12:15:59;;;;;;;6.32;5.30;;;32.10;63.90;;;;;;5068700;28;20052;-74
2023/06/11 12:18:24;;;;;;;7.93;5.75;;;32.20;63.50;;;;;;5084789;28;20041;-74
2023/06/11 12:20:51;;;;;;;11.98;6.43;;;32.20;62.90;;;;;;5067776;28;20047;-74
2023/06/11 12:23:17;;;;;;;7.28;6.05;;;32.30;62.70;;;;;;5073978;28;20063;-74
2023/06/11 12:25:42;;;;;;;8.13;5.35;;;32.40;62.00;;;;;;5065871;28;20513;-74
2023/06/11 12:28:08;;;;;;;9.70;6.13;;;32.40;62.90;;;;;;5054633;28;20041;-74
2023/06/11 12:30:35;;;;;;;7.93;6.00;;;32.60;62.90;;;;;;5041146;28;20044;-74
2023/06/11 12:33:00;;;;;;;6.72;6.00;;;32.70;62.50;;;;;;5046942;28;20052;-74
2023/06/11 12:35:29;;;;;;;5.80;5.30;;;32.80;62.80;;;;;;5079765;28;20690;-74